sensor_id;sensor_type;location;lat;lon;timestamp;pressure;altitude;pressure_sealevel;temperature;humidity
24306;BME280;12423;48.768;8.850;2023-06-24T00:00:01;97835.72;;;15.32;100.00
24306;BME280;12423;48.768;8.850;2023-06-24T00:02:07;97834.41;;;15.55;100.00
24306;BME280;12423;48.768;8.850;2023-06-24T00:04:09;97831.28;;;15.60;100.00
24306;BME280;12423;48.768;8.850;2023-06-24T00:06:10;97840.34;;;15.49;100.00
24306;BME280;12423;48.768;8.850;2023-06-24T00:08:11;97833.44;;;15.17;100.00
24306;BME280;12423;48.768;8.850;2023-06-24T00:10:14;97835.44;;;15.35;100.00
24306;BME280;12423;48.768;8.850;2023-06-24T00:12:15;97836.13;;;15.27;100.00
24306;BME280;12423;48.768;8.850;2023-06-24T00:14:20;97832.31;;;15.10;100.00
24306;BME280;12423;48.768;8.850;2023-06-24T00:16:22;97843.34;;;14.87;100.00
24306;BME280;12423;48.768;8.850;2023-06-24T00:18:26;97838.97;;;14.77;100.00
24306;BME280;12423;48.768;8.850;2023-06-24T00:20:29;97830.19;;;15.04;100.00
24306;BME280;12423;48.768;8.850;2023-06-24T00:22:30;97839.97;;;15.15;100.00
24306;BME280;12423;48.768;8.850;2023-06-24T00:24:31;97836.84;;;15.19;100.00
24306;BME280;12423;48.768;8.850;2023-06-24T00:26:32;97835.03;;;15.20;100.00
24306;BME280;12423;48.768;8.850;2023-06-24T00:28:33;97835.59;;;15.23;100.00
24306;BME280;12423;48.768;8.850;2023-06-24T00:30:34;97831.31;;;15.21;100.00
24306;BME280;12423;48.768;8.850;2023-06-24T00:32:35;97836.97;;;15.27;100.00
24306;BME280;12423;48.768;8.850;2023-06-24T00:34:36;97830.91;;;15.25;100.00
24306;BME280;12423;48.768;8.850;2023-06-24T00:36:38;97831.31;;;15.21;100.00
24306;BME280;12423;48.768;8.850;2023-06-24T00:38:39;97837.97;;;15.07;100.00
24306;BME280;12423;48.768;8.850;2023-06-24T00:40:41;97837.16;;;15.06;100.00
24306;BME280;12423;48.768;8.850;2023-06-24T00:42:46;97836.84;;;14.80;100.00
24306;BME280;12423;48.768;8.850;2023-06-24T00:44:48;97832.56;;;14.68;100.00
24306;BME280;12423;48.768;8.850;2023-06-24T00:46:49;97833.56;;;14.67;100.00
24306;BME280;12423;48.768;8.850;2023-06-24T00:48:52;97828.19;;;14.67;100.00
24306;BME280;12423;48.768;8.850;2023-06-24T00:50:54;97829.25;;;14.54;100.00
24306;BME280;12423;48.768;8.850;2023-06-24T00:52:55;97827.31;;;14.76;100.00
24306;BME280;12423;48.768;8.850;2023-06-24T00:54:56;97833.88;;;14.83;100.00
24306;BME280;12423;48.768;8.850;2023-06-24T00:56:58;97837.56;;;14.92;100.00
24306;BME280;12423;48.768;8.850;2023-06-24T00:59:02;97832.59;;;14.87;100.00
24306;BME280;12423;48.768;8.850;2023-06-24T01:01:03;97831.59;;;14.88;100.00
24306;BME280;12423;48.768;8.850;2023-06-24T01:03:06;97833.88;;;14.83;100.00
24306;BME280;12423;48.768;8.850;2023-06-24T01:05:08;97831.59;;;14.88;100.00
24306;BME280;12423;48.768;8.850;2023-06-24T01:07:10;97841.22;;;14.91;100.00
24306;BME280;12423;48.768;8.850;2023-06-24T01:09:12;97840.66;;;14.87;100.00
24306;BME280;12423;48.768;8.850;2023-06-24T01:11:13;97835.53;;;14.74;100.00
24306;BME280;12423;48.768;8.850;2023-06-24T01:13:15;97838.78;;;14.78;100.00
24306;BME280;12423;48.768;8.850;2023-06-24T01:15:17;97829.88;;;14.68;100.00
24306;BME280;12423;48.768;8.850;2023-06-24T01:17:35;97835.47;;;14.45;100.00
24306;BME280;12423;48.768;8.850;2023-06-24T01:20:01;97836.88;;;14.49;100.00
24306;BME280;12423;48.768;8.850;2023-06-24T01:22:25;97835.44;;;14.05;100.00
24306;BME280;12423;48.768;8.850;2023-06-24T01:31:34;97830.66;;;14.49;100.00
24306;BME280;12423;48.768;8.850;2023-06-24T01:33:51;97831.44;;;14.30;100.00
24306;BME280;12423;48.768;8.850;2023-06-24T01:35:57;97830.34;;;14.42;100.00
24306;BME280;12423;48.768;8.850;2023-06-24T01:38:05;97830.50;;;14.41;100.00
24306;BME280;12423;48.768;8.850;2023-06-24T01:40:28;97822.88;;;14.46;100.00
24306;BME280;12423;48.768;8.850;2023-06-24T01:42:32;97816.78;;;14.44;100.00
24306;BME280;12423;48.768;8.850;2023-06-24T01:44:35;97819.16;;;13.96;100.00
24306;BME280;12423;48.768;8.850;2023-06-24T01:46:41;97815.94;;;14.03;100.00
24306;BME280;12423;48.768;8.850;2023-06-24T01:48:43;97818.34;;;14.15;100.00
24306;BME280;12423;48.768;8.850;2023-06-24T01:50:59;97825.31;;;14.18;100.00
24306;BME280;12423;48.768;8.850;2023-06-24T01:53:06;97821.34;;;14.12;100.00
24306;BME280;12423;48.768;8.850;2023-06-24T01:55:09;97826.84;;;14.11;100.00
24306;BME280;12423;48.768;8.850;2023-06-24T01:57:11;97827.06;;;13.98;100.00
24306;BME280;12423;48.768;8.850;2023-06-24T01:59:16;97822.16;;;14.03;100.00
24306;BME280;12423;48.768;8.850;2023-06-24T02:01:18;97828.50;;;14.02;100.00
24306;BME280;12423;48.768;8.850;2023-06-24T02:03:21;97830.47;;;14.00;100.00
24306;BME280;12423;48.768;8.850;2023-06-24T02:05:24;97829.31;;;13.93;100.00
24306;BME280;12423;48.768;8.850;2023-06-24T02:07:27;97827.50;;;13.72;100.00
24306;BME280;12423;48.768;8.850;2023-06-24T02:09:32;97822.50;;;13.68;100.00
24306;BME280;12423;48.768;8.850;2023-06-24T02:11:34;97814.81;;;13.74;100.00
24306;BME280;12423;48.768;8.850;2023-06-24T02:13:38;97820.75;;;13.78;100.00
24306;BME280;12423;48.768;8.850;2023-06-24T02:15:47;97817.06;;;13.79;100.00
24306;BME280;12423;48.768;8.850;2023-06-24T02:17:51;97818.00;;;13.89;100.00
24306;BME280;12423;48.768;8.850;2023-06-24T02:19:53;97812.88;;;13.86;100.00
24306;BME280;12423;48.768;8.850;2023-06-24T02:21:57;97821.06;;;13.85;100.00
24306;BME280;12423;48.768;8.850;2023-06-24T02:24:00;97813.72;;;13.87;100.00
24306;BME280;12423;48.768;8.850;2023-06-24T02:26:02;97817.56;;;13.94;100.00
24306;BME280;12423;48.768;8.850;2023-06-24T02:28:07;97816.59;;;13.95;100.00
24306;BME280;12423;48.768;8.850;2023-06-24T02:30:10;97810.78;;;13.90;100.00
24306;BME280;12423;48.768;8.850;2023-06-24T02:32:11;97812.63;;;13.89;100.00
24306;BME280;12423;48.768;8.850;2023-06-24T02:34:13;97816.28;;;13.88;100.00
24306;BME280;12423;48.768;8.850;2023-06-24T02:36:14;97810.34;;;13.85;100.00
24306;BME280;12423;48.768;8.850;2023-06-24T02:38:15;97819.88;;;13.77;100.00
24306;BME280;12423;48.768;8.850;2023-06-24T02:40:16;97808.97;;;13.69;100.00
24306;BME280;12423;48.768;8.850;2023-06-24T02:42:17;97813.03;;;13.63;100.00
24306;BME280;12423;48.768;8.850;2023-06-24T02:44:18;97818.16;;;13.45;100.00
24306;BME280;12423;48.768;8.850;2023-06-24T02:46:20;97820.06;;;13.55;100.00
24306;BME280;12423;48.768;8.850;2023-06-24T02:48:22;97813.56;;;13.57;100.00
24306;BME280;12423;48.768;8.850;2023-06-24T02:50:24;97815.00;;;13.61;100.00
24306;BME280;12423;48.768;8.850;2023-06-24T02:52:26;97816.13;;;13.59;100.00
24306;BME280;12423;48.768;8.850;2023-06-24T02:54:30;97806.13;;;13.40;100.00
24306;BME280;12423;48.768;8.850;2023-06-24T02:56:50;97815.41;;;13.36;100.00
24306;BME280;12423;48.768;8.850;2023-06-24T02:59:00;97810.41;;;13.10;100.00
24306;BME280;12423;48.768;8.850;2023-06-24T03:01:02;97820.78;;;13.24;100.00
24306;BME280;12423;48.768;8.850;2023-06-24T03:03:24;97816.25;;;13.36;100.00
24306;BME280;12423;48.768;8.850;2023-06-24T03:05:28;97816.53;;;13.33;100.00
24306;BME280;12423;48.768;8.850;2023-06-24T03:07:30;97809.19;;;13.35;100.00
24306;BME280;12423;48.768;8.850;2023-06-24T03:09:34;97816.69;;;13.20;100.00
24306;BME280;12423;48.768;8.850;2023-06-24T03:11:43;97816.53;;;13.33;100.00
24306;BME280;12423;48.768;8.850;2023-06-24T03:13:45;97814.56;;;13.35;100.00
24306;BME280;12423;48.768;8.850;2023-06-24T03:15:55;97818.22;;;13.34;100.00
24306;BME280;12423;48.768;8.850;2023-06-24T03:17:59;97817.38;;;13.34;100.00
24306;BME280;12423;48.768;8.850;2023-06-24T03:20:00;97815.75;;;13.31;100.00
24306;BME280;12423;48.768;8.850;2023-06-24T03:22:02;97823.81;;;13.31;100.00
24306;BME280;12423;48.768;8.850;2023-06-24T03:24:04;97826.03;;;13.26;100.00
24306;BME280;12423;48.768;8.850;2023-06-24T03:26:05;97825.44;;;13.22;100.00
24306;BME280;12423;48.768;8.850;2023-06-24T03:28:06;97826.41;;;13.33;100.00
24306;BME280;12423;48.768;8.850;2023-06-24T03:30:17;97828.00;;;13.24;100.00
24306;BME280;12423;48.768;8.850;2023-06-24T03:32:19;97818.97;;;13.25;100.00
24306;BME280;12423;48.768;8.850;2023-06-24T03:34:21;97826.28;;;13.23;100.00
24306;BME280;12423;48.768;8.850;2023-06-24T03:36:22;97837.69;;;13.15;100.00
24306;BME280;12423;48.768;8.850;2023-06-24T03:38:25;97835.94;;;13.25;100.00
24306;BME280;12423;48.768;8.850;2023-06-24T03:40:26;97838.97;;;13.32;100.00
24306;BME280;12423;48.768;8.850;2023-06-24T03:42:27;97836.28;;;13.32;100.00
24306;BME280;12423;48.768;8.850;2023-06-24T03:44:30;97835.53;;;13.30;100.00
24306;BME280;12423;48.768;8.850;2023-06-24T03:46:31;97838.00;;;13.33;100.00
24306;BME280;12423;48.768;8.850;2023-06-24T03:48:35;97840.41;;;13.36;100.00
24306;BME280;12423;48.768;8.850;2023-06-24T03:50:36;97841.13;;;13.38;100.00
24306;BME280;12423;48.768;8.850;2023-06-24T03:52:37;97845.28;;;13.31;100.00
24306;BME280;12423;48.768;8.850;2023-06-24T03:54:38;97853.69;;;13.38;100.00
24306;BME280;12423;48.768;8.850;2023-06-24T03:56:40;97846.16;;;13.32;100.00
24306;BME280;12423;48.768;8.850;2023-06-24T03:58:41;97850.16;;;13.37;100.00
24306;BME280;12423;48.768;8.850;2023-06-24T04:00:43;97846.25;;;13.41;100.00
24306;BME280;12423;48.768;8.850;2023-06-24T04:02:44;97855.97;;;13.42;100.00
24306;BME280;12423;48.768;8.850;2023-06-24T04:04:46;97852.84;;;13.37;100.00
24306;BME280;12423;48.768;8.850;2023-06-24T04:06:51;97852.13;;;13.35;100.00
24306;BME280;12423;48.768;8.850;2023-06-24T04:08:53;97856.84;;;13.43;100.00
24306;BME280;12423;48.768;8.850;2023-06-24T04:10:57;97858.41;;;13.45;100.00
24306;BME280;12423;48.768;8.850;2023-06-24T04:13:00;97862.25;;;13.53;100.00
24306;BME280;12423;48.768;8.850;2023-06-24T04:15:03;97871.38;;;13.40;100.00
24306;BME280;12423;48.768;8.850;2023-06-24T04:17:05;97864.63;;;13.46;100.00
24306;BME280;12423;48.768;8.850;2023-06-24T04:19:06;97875.56;;;13.54;100.00
24306;BME280;12423;48.768;8.850;2023-06-24T04:21:07;97873.50;;;13.58;100.00
24306;BME280;12423;48.768;8.850;2023-06-24T04:23:08;97877.22;;;13.67;100.00
24306;BME280;12423;48.768;8.850;2023-06-24T04:25:11;97875.19;;;13.59;100.00
24306;BME280;12423;48.768;8.850;2023-06-24T04:27:12;97876.44;;;13.55;100.00
24306;BME280;12423;48.768;8.850;2023-06-24T04:29:14;97870.13;;;13.66;100.00
24306;BME280;12423;48.768;8.850;2023-06-24T04:31:15;97883.88;;;13.72;100.00
24306;BME280;12423;48.768;8.850;2023-06-24T04:33:17;97879.38;;;13.73;100.00
24306;BME280;12423;48.768;8.850;2023-06-24T04:35:19;97881.50;;;13.79;100.00
24306;BME280;12423;48.768;8.850;2023-06-24T04:37:20;97879.38;;;13.73;100.00
24306;BME280;12423;48.768;8.850;2023-06-24T04:39:22;97881.56;;;13.89;100.00
24306;BME280;12423;48.768;8.850;2023-06-24T04:41:23;97893.91;;;13.91;100.00
24306;BME280;12423;48.768;8.850;2023-06-24T04:43:26;97888.78;;;13.88;100.00
24306;BME280;12423;48.768;8.850;2023-06-24T04:45:30;97885.25;;;13.88;100.00
24306;BME280;12423;48.768;8.850;2023-06-24T04:47:31;97880.28;;;14.04;100.00
24306;BME280;12423;48.768;8.850;2023-06-24T04:49:32;97881.25;;;14.03;100.00
24306;BME280;12423;48.768;8.850;2023-06-24T04:51:33;97882.53;;;14.09;100.00
24306;BME280;12423;48.768;8.850;2023-06-24T04:53:34;97882.81;;;14.06;100.00
24306;BME280;12423;48.768;8.850;2023-06-24T04:55:37;97889.13;;;13.95;100.00
24306;BME280;12423;48.768;8.850;2023-06-24T04:57:38;97881.69;;;14.08;100.00
24306;BME280;12423;48.768;8.850;2023-06-24T04:59:39;97884.75;;;14.25;100.00
24306;BME280;12423;48.768;8.850;2023-06-24T05:01:40;97887.41;;;14.25;100.00
24306;BME280;12423;48.768;8.850;2023-06-24T05:03:41;97876.59;;;14.36;100.00
24306;BME280;12423;48.768;8.850;2023-06-24T05:05:42;97883.84;;;14.45;100.00
24306;BME280;12423;48.768;8.850;2023-06-24T05:07:43;97887.25;;;14.47;100.00
24306;BME280;12423;48.768;8.850;2023-06-24T05:09:48;97882.16;;;14.54;100.00
24306;BME280;12423;48.768;8.850;2023-06-24T05:11:49;97881.16;;;14.55;100.00
24306;BME280;12423;48.768;8.850;2023-06-24T05:13:50;97877.28;;;14.69;100.00
24306;BME280;12423;48.768;8.850;2023-06-24T05:15:51;97873.91;;;14.67;100.00
24306;BME280;12423;48.768;8.850;2023-06-24T05:17:52;97879.72;;;14.82;100.00
24306;BME280;12423;48.768;8.850;2023-06-24T05:19:53;97885.13;;;14.82;100.00
24306;BME280;12423;48.768;8.850;2023-06-24T05:21:54;97897.16;;;14.87;100.00
24306;BME280;12423;48.768;8.850;2023-06-24T05:23:55;97889.91;;;14.88;100.00
24306;BME280;12423;48.768;8.850;2023-06-24T05:25:56;97893.47;;;14.88;100.00
24306;BME280;12423;48.768;8.850;2023-06-24T05:27:57;97897.03;;;14.99;100.00
24306;BME280;12423;48.768;8.850;2023-06-24T05:29:58;97901.84;;;15.05;100.00
24306;BME280;12423;48.768;8.850;2023-06-24T05:32:00;97900.44;;;15.10;100.00
24306;BME280;12423;48.768;8.850;2023-06-24T05:34:02;97897.06;;;15.18;100.00
24306;BME280;12423;48.768;8.850;2023-06-24T05:36:03;97892.81;;;15.25;100.00
24306;BME280;12423;48.768;8.850;2023-06-24T05:38:04;97904.41;;;15.36;100.00
24306;BME280;12423;48.768;8.850;2023-06-24T05:40:06;97899.03;;;15.36;100.00
24306;BME280;12423;48.768;8.850;2023-06-24T05:42:08;97898.19;;;15.45;100.00
24306;BME280;12423;48.768;8.850;2023-06-24T05:44:09;97903.56;;;15.55;100.00
24306;BME280;12423;48.768;8.850;2023-06-24T05:46:12;97905.56;;;15.62;100.00
24306;BME280;12423;48.768;8.850;2023-06-24T05:48:13;97910.91;;;15.72;100.00
24306;BME280;12423;48.768;8.850;2023-06-24T05:50:15;97908.09;;;15.74;100.00
24306;BME280;12423;48.768;8.850;2023-06-24T05:52:16;97913.94;;;15.79;100.00
24306;BME280;12423;48.768;8.850;2023-06-24T05:54:17;97905.97;;;15.87;100.00
24306;BME280;12423;48.768;8.850;2023-06-24T05:56:19;97908.78;;;15.95;100.00
24306;BME280;12423;48.768;8.850;2023-06-24T05:58:21;97905.53;;;16.01;100.00
24306;BME280;12423;48.768;8.850;2023-06-24T06:00:22;97902.94;;;16.10;100.00
24306;BME280;12423;48.768;8.850;2023-06-24T06:02:23;97900.38;;;16.18;100.00
24306;BME280;12423;48.768;8.850;2023-06-24T06:04:24;97904.03;;;16.27;100.00
24306;BME280;12423;48.768;8.850;2023-06-24T06:06:25;97903.16;;;16.36;100.00
24306;BME280;12423;48.768;8.850;2023-06-24T06:08:26;97896.88;;;16.45;100.00
24306;BME280;12423;48.768;8.850;2023-06-24T06:10:27;97906.06;;;16.52;100.00
24306;BME280;12423;48.768;8.850;2023-06-24T06:12:28;97901.91;;;16.58;100.00
24306;BME280;12423;48.768;8.850;2023-06-24T06:14:29;97911.81;;;16.67;100.00
24306;BME280;12423;48.768;8.850;2023-06-24T06:16:30;97903.81;;;16.75;100.00
24306;BME280;12423;48.768;8.850;2023-06-24T06:18:31;97903.38;;;16.80;100.00
24306;BME280;12423;48.768;8.850;2023-06-24T06:20:32;97898.94;;;16.89;100.00
24306;BME280;12423;48.768;8.850;2023-06-24T06:22:33;97897.13;;;17.07;100.00
24306;BME280;12423;48.768;8.850;2023-06-24T06:24:38;97902.59;;;17.16;100.00
24306;BME280;12423;48.768;8.850;2023-06-24T06:26:43;97892.47;;;17.27;100.00
24306;BME280;12423;48.768;8.850;2023-06-24T06:28:46;97892.19;;;17.39;100.00
24306;BME280;12423;48.768;8.850;2023-06-24T06:30:50;97885.72;;;17.49;100.00
24306;BME280;12423;48.768;8.850;2023-06-24T06:32:51;97884.94;;;17.75;100.00
24306;BME280;12423;48.768;8.850;2023-06-24T06:34:52;97887.47;;;17.95;100.00
24306;BME280;12423;48.768;8.850;2023-06-24T06:36:53;97896.03;;;18.16;100.00
24306;BME280;12423;48.768;8.850;2023-06-24T06:38:55;97888.69;;;18.27;100.00
24306;BME280;12423;48.768;8.850;2023-06-24T06:40:56;97889.31;;;18.47;100.00
24306;BME280;12423;48.768;8.850;2023-06-24T06:42:57;97882.38;;;18.52;100.00
24306;BME280;12423;48.768;8.850;2023-06-24T06:44:58;97885.13;;;18.60;100.00
24306;BME280;12423;48.768;8.850;2023-06-24T06:46:59;97882.09;;;18.64;100.00
24306;BME280;12423;48.768;8.850;2023-06-24T06:49:00;97883.53;;;18.76;100.00
24306;BME280;12423;48.768;8.850;2023-06-24T06:51:01;97885.19;;;18.77;100.00
24306;BME280;12423;48.768;8.850;2023-06-24T06:53:02;97881.56;;;18.86;100.00
24306;BME280;12423;48.768;8.850;2023-06-24T06:55:03;97879.19;;;18.91;100.00
24306;BME280;12423;48.768;8.850;2023-06-24T06:57:04;97878.03;;;19.02;100.00
24306;BME280;12423;48.768;8.850;2023-06-24T06:59:05;97878.59;;;19.22;100.00
24306;BME280;12423;48.768;8.850;2023-06-24T07:01:06;97875.38;;;19.27;100.00
24306;BME280;12423;48.768;8.850;2023-06-24T07:03:07;97884.19;;;19.29;100.00
24306;BME280;12423;48.768;8.850;2023-06-24T07:05:08;97874.56;;;19.43;100.00
24306;BME280;12423;48.768;8.850;2023-06-24T07:07:10;97881.69;;;19.44;99.00
24306;BME280;12423;48.768;8.850;2023-06-24T07:09:12;97883.53;;;19.51;98.35
24306;BME280;12423;48.768;8.850;2023-06-24T07:11:13;97882.50;;;19.52;97.77
24306;BME280;12423;48.768;8.850;2023-06-24T07:13:14;97880.31;;;19.73;96.68
24306;BME280;12423;48.768;8.850;2023-06-24T07:15:15;97881.00;;;19.83;93.48
24306;BME280;12423;48.768;8.850;2023-06-24T07:17:19;97890.50;;;19.87;93.68
24306;BME280;12423;48.768;8.850;2023-06-24T07:19:21;97878.63;;;19.88;91.84
24306;BME280;12423;48.768;8.850;2023-06-24T07:21:22;97877.47;;;19.91;91.31
24306;BME280;12423;48.768;8.850;2023-06-24T07:23:23;97880.50;;;19.96;93.40
24306;BME280;12423;48.768;8.850;2023-06-24T07:25:24;97878.25;;;20.16;90.88
24306;BME280;12423;48.768;8.850;2023-06-24T07:27:26;97875.34;;;20.25;89.56
24306;BME280;12423;48.768;8.850;2023-06-24T07:29:28;97879.25;;;20.39;88.04
24306;BME280;12423;48.768;8.850;2023-06-24T07:31:29;97873.28;;;20.36;86.71
24306;BME280;12423;48.768;8.850;2023-06-24T07:33:30;97871.53;;;20.59;87.49
24306;BME280;12423;48.768;8.850;2023-06-24T07:35:32;97881.50;;;20.75;85.67
24306;BME280;12423;48.768;8.850;2023-06-24T07:37:36;97864.50;;;20.82;85.25
24306;BME280;12423;48.768;8.850;2023-06-24T07:39:37;97870.25;;;20.87;83.71
24306;BME280;12423;48.768;8.850;2023-06-24T07:41:38;97874.00;;;20.86;82.27
24306;BME280;12423;48.768;8.850;2023-06-24T07:43:39;97865.16;;;20.84;82.14
24306;BME280;12423;48.768;8.850;2023-06-24T07:45:40;97866.69;;;20.86;82.63
24306;BME280;12423;48.768;8.850;2023-06-24T07:47:41;97871.38;;;21.01;81.18
24306;BME280;12423;48.768;8.850;2023-06-24T07:49:42;97870.63;;;21.07;81.92
24306;BME280;12423;48.768;8.850;2023-06-24T07:51:43;97869.13;;;21.04;80.55
24306;BME280;12423;48.768;8.850;2023-06-24T07:53:48;97869.88;;;21.21;79.67
24306;BME280;12423;48.768;8.850;2023-06-24T07:55:49;97874.06;;;21.32;79.47
24306;BME280;12423;48.768;8.850;2023-06-24T07:57:50;97868.28;;;21.35;80.27
24306;BME280;12423;48.768;8.850;2023-06-24T07:59:51;97863.38;;;21.30;78.54
24306;BME280;12423;48.768;8.850;2023-06-24T08:01:52;97866.50;;;21.42;80.57
24306;BME280;12423;48.768;8.850;2023-06-24T08:03:53;97864.34;;;21.61;77.66
24306;BME280;12423;48.768;8.850;2023-06-24T08:05:54;97861.38;;;21.70;77.40
24306;BME280;12423;48.768;8.850;2023-06-24T08:07:57;97866.88;;;21.85;73.85
24306;BME280;12423;48.768;8.850;2023-06-24T08:09:58;97865.16;;;21.84;75.21
24306;BME280;12423;48.768;8.850;2023-06-24T08:11:59;97870.34;;;21.94;75.19
24306;BME280;12423;48.768;8.850;2023-06-24T08:14:00;97872.63;;;22.05;74.72
24306;BME280;12423;48.768;8.850;2023-06-24T08:16:02;97860.00;;;22.13;75.12
24306;BME280;12423;48.768;8.850;2023-06-24T08:18:03;97863.53;;;22.13;71.78
24306;BME280;12423;48.768;8.850;2023-06-24T08:20:05;97862.81;;;22.19;71.56
24306;BME280;12423;48.768;8.850;2023-06-24T08:22:06;97862.91;;;22.26;72.33
24306;BME280;12423;48.768;8.850;2023-06-24T08:24:07;97859.25;;;22.34;71.10
24306;BME280;12423;48.768;8.850;2023-06-24T08:26:08;97862.47;;;22.52;70.04
24306;BME280;12423;48.768;8.850;2023-06-24T08:28:10;97857.69;;;22.54;69.93
24306;BME280;12423;48.768;8.850;2023-06-24T08:30:11;97859.25;;;22.63;67.85
24306;BME280;12423;48.768;8.850;2023-06-24T08:32:13;97859.34;;;22.55;64.70
24306;BME280;12423;48.768;8.850;2023-06-24T08:34:14;97853.72;;;22.57;65.39
24306;BME280;12423;48.768;8.850;2023-06-24T08:36:15;97858.13;;;22.73;65.92
24306;BME280;12423;48.768;8.850;2023-06-24T08:38:16;97854.81;;;22.92;65.21
24306;BME280;12423;48.768;8.850;2023-06-24T08:40:17;97856.72;;;22.77;63.89
24306;BME280;12423;48.768;8.850;2023-06-24T08:42:20;97853.31;;;22.90;64.08
24306;BME280;12423;48.768;8.850;2023-06-24T08:44:21;97858.63;;;22.98;61.83
24306;BME280;12423;48.768;8.850;2023-06-24T08:46:24;97852.09;;;22.92;60.52
24306;BME280;12423;48.768;8.850;2023-06-24T08:48:27;97851.06;;;22.93;60.12
24306;BME280;12423;48.768;8.850;2023-06-24T08:50:36;97853.44;;;22.67;61.56
24306;BME280;12423;48.768;8.850;2023-06-24T08:52:44;97852.69;;;22.73;61.63
24306;BME280;12423;48.768;8.850;2023-06-24T08:54:47;97848.81;;;22.97;62.15
24306;BME280;12423;48.768;8.850;2023-06-24T08:56:49;97854.13;;;23.20;59.32
24306;BME280;12423;48.768;8.850;2023-06-24T08:58:51;97856.69;;;23.07;57.42
24306;BME280;12423;48.768;8.850;2023-06-24T09:00:52;97856.84;;;23.05;56.90
24306;BME280;12423;48.768;8.850;2023-06-24T09:02:53;97844.19;;;22.97;58.66
24306;BME280;12423;48.768;8.850;2023-06-24T09:04:54;97848.88;;;23.04;58.98
24306;BME280;12423;48.768;8.850;2023-06-24T09:06:56;97849.66;;;23.34;58.71
24306;BME280;12423;48.768;8.850;2023-06-24T09:08:57;97844.63;;;23.37;57.22
24306;BME280;12423;48.768;8.850;2023-06-24T09:10:58;97849.69;;;23.62;58.92
24306;BME280;12423;48.768;8.850;2023-06-24T09:13:00;97842.44;;;23.91;57.08
24306;BME280;12423;48.768;8.850;2023-06-24T09:15:02;97846.06;;;23.98;57.11
24306;BME280;12423;48.768;8.850;2023-06-24T09:17:03;97846.50;;;24.02;56.06
24306;BME280;12423;48.768;8.850;2023-06-24T09:19:04;97844.72;;;24.16;56.40
24306;BME280;12423;48.768;8.850;2023-06-24T09:21:05;97847.72;;;24.27;56.04
24306;BME280;12423;48.768;8.850;2023-06-24T09:23:07;97836.63;;;24.29;55.62
24306;BME280;12423;48.768;8.850;2023-06-24T09:25:08;97832.66;;;24.38;55.90
24306;BME280;12423;48.768;8.850;2023-06-24T09:27:11;97828.25;;;24.37;55.02
24306;BME280;12423;48.768;8.850;2023-06-24T09:29:14;97826.81;;;24.06;54.06
24306;BME280;12423;48.768;8.850;2023-06-24T09:31:15;97821.09;;;24.36;55.40
24306;BME280;12423;48.768;8.850;2023-06-24T09:33:21;97824.19;;;24.61;52.52
24306;BME280;12423;48.768;8.850;2023-06-24T09:35:24;97814.63;;;24.79;51.11
24306;BME280;12423;48.768;8.850;2023-06-24T09:37:25;97821.06;;;24.64;53.58
24306;BME280;12423;48.768;8.850;2023-06-24T09:39:36;97824.50;;;24.80;51.89
24306;BME280;12423;48.768;8.850;2023-06-24T09:41:41;97821.75;;;24.73;50.11
24306;BME280;12423;48.768;8.850;2023-06-24T09:43:43;97818.13;;;24.66;50.23
24306;BME280;12423;48.768;8.850;2023-06-24T09:45:48;97818.94;;;24.60;51.35
24306;BME280;12423;48.768;8.850;2023-06-24T09:47:49;97814.97;;;24.62;51.57
24306;BME280;12423;48.768;8.850;2023-06-24T09:49:54;97810.56;;;24.68;51.22
24306;BME280;12423;48.768;8.850;2023-06-24T09:51:57;97813.78;;;24.43;50.76
24306;BME280;12423;48.768;8.850;2023-06-24T09:54:01;97812.78;;;24.93;53.86
24306;BME280;12423;48.768;8.850;2023-06-24T09:56:04;97808.91;;;25.29;51.19
24306;BME280;12423;48.768;8.850;2023-06-24T09:58:05;97814.38;;;25.35;51.09
24306;BME280;12423;48.768;8.850;2023-06-24T10:00:07;97810.19;;;25.53;50.71
24306;BME280;12423;48.768;8.850;2023-06-24T10:02:11;97802.63;;;25.62;49.06
24306;BME280;12423;48.768;8.850;2023-06-24T10:04:19;97797.16;;;25.68;48.74
24306;BME280;12423;48.768;8.850;2023-06-24T10:06:21;97795.28;;;25.96;49.93
24306;BME280;12423;48.768;8.850;2023-06-24T10:08:22;97796.50;;;26.13;48.48
24306;BME280;12423;48.768;8.850;2023-06-24T10:10:23;97782.84;;;25.86;45.64
24306;BME280;12423;48.768;8.850;2023-06-24T10:12:24;97790.19;;;25.92;46.49
24306;BME280;12423;48.768;8.850;2023-06-24T10:14:27;97787.88;;;26.16;47.34
24306;BME280;12423;48.768;8.850;2023-06-24T10:16:28;97781.69;;;26.41;49.04
24306;BME280;12423;48.768;8.850;2023-06-24T10:18:37;97789.56;;;26.82;48.69
24306;BME280;12423;48.768;8.850;2023-06-24T10:20:38;97783.53;;;26.60;44.73
24306;BME280;12423;48.768;8.850;2023-06-24T10:22:39;97777.59;;;26.77;45.72
24306;BME280;12423;48.768;8.850;2023-06-24T10:24:41;97781.78;;;26.86;46.04
24306;BME280;12423;48.768;8.850;2023-06-24T10:26:48;97777.44;;;27.03;45.03
24306;BME280;12423;48.768;8.850;2023-06-24T10:31:08;97768.25;;;26.91;43.95
24306;BME280;12423;48.768;8.850;2023-06-24T10:33:12;97771.59;;;26.93;43.00
24306;BME280;12423;48.768;8.850;2023-06-24T10:35:23;97764.00;;;26.95;44.12
24306;BME280;12423;48.768;8.850;2023-06-24T10:37:32;97760.00;;;27.30;43.42
24306;BME280;12423;48.768;8.850;2023-06-24T10:39:46;97761.59;;;27.06;41.04
24306;BME280;12423;48.768;8.850;2023-06-24T10:41:49;97748.53;;;27.39;43.06
24306;BME280;12423;48.768;8.850;2023-06-24T10:43:50;97753.81;;;27.09;41.46
24306;BME280;12423;48.768;8.850;2023-06-24T10:45:52;97748.22;;;27.29;43.08
24306;BME280;12423;48.768;8.850;2023-06-24T10:47:53;97754.75;;;27.53;42.58
24306;BME280;12423;48.768;8.850;2023-06-24T10:49:57;97754.13;;;27.76;41.60
24306;BME280;12423;48.768;8.850;2023-06-24T10:51:58;97753.63;;;27.86;40.97